sensor_id;sensor_type;location;lat;lon;timestamp;pressure;altitude;pressure_sealevel;temperature;humidity
22580;BME280;11456;47.030;15.396;2023-03-18T00:02:09;97498.94;;;2.54;58.53
22580;BME280;11456;47.030;15.396;2023-03-18T00:04:35;97506.50;;;2.47;59.50
22580;BME280;11456;47.030;15.396;2023-03-18T00:07:02;97505.19;;;2.27;60.41
22580;BME280;11456;47.030;15.396;2023-03-18T00:09:29;97499.47;;;2.33;59.96
22580;BME280;11456;47.030;15.396;2023-03-18T00:11:55;97501.69;;;2.27;60.57
22580;BME280;11456;47.030;15.396;2023-03-18T00:14:22;97499.66;;;2.18;60.54
22580;BME280;11456;47.030;15.396;2023-03-18T00:16:49;97504.34;;;2.27;61.02
22580;BME280;11456;47.030;15.396;2023-03-18T00:19:16;97506.38;;;2.11;61.42
22580;BME280;11456;47.030;15.396;2023-03-18T00:21:43;97510.94;;;2.21;60.31
22580;BME280;11456;47.030;15.396;2023-03-18T00:24:09;97503.81;;;2.09;60.52
22580;BME280;11456;47.030;15.396;2023-03-18T00:26:37;97499.94;;;2.00;61.59
22580;BME280;11456;47.030;15.396;2023-03-18T00:29:04;97502.50;;;2.02;62.26
22580;BME280;11456;47.030;15.396;2023-03-18T00:31:31;97491.91;;;2.15;60.78
22580;BME280;11456;47.030;15.396;2023-03-18T00:33:57;97497.69;;;1.82;62.10
22580;BME280;11456;47.030;15.396;2023-03-18T00:36:24;97496.03;;;1.67;63.08
22580;BME280;11456;47.030;15.396;2023-03-18T00:38:52;97503.84;;;1.55;63.46
22580;BME280;11456;47.030;15.396;2023-03-18T00:41:23;97495.53;;;1.47;63.65
22580;BME280;11456;47.030;15.396;2023-03-18T00:43:50;97488.56;;;1.46;64.16
22580;BME280;11456;47.030;15.396;2023-03-18T00:46:21;97493.19;;;1.43;64.35
22580;BME280;11456;47.030;15.396;2023-03-18T00:48:50;97488.16;;;1.52;63.97
22580;BME280;11456;47.030;15.396;2023-03-18T00:51:18;97493.25;;;1.55;64.30
22580;BME280;11456;47.030;15.396;2023-03-18T00:53:48;97495.53;;;1.47;64.28
22580;BME280;11456;47.030;15.396;2023-03-18T00:56:16;97497.31;;;1.34;64.58
22580;BME280;11456;47.030;15.396;2023-03-18T00:58:44;97488.38;;;1.62;63.87
22580;BME280;11456;47.030;15.396;2023-03-18T01:01:10;97485.22;;;1.70;63.62
22580;BME280;11456;47.030;15.396;2023-03-18T01:03:39;97486.84;;;1.45;64.14
22580;BME280;11456;47.030;15.396;2023-03-18T01:06:08;97481.59;;;1.31;64.51
22580;BME280;11456;47.030;15.396;2023-03-18T01:08:37;97481.34;;;1.22;65.34
22580;BME280;11456;47.030;15.396;2023-03-18T01:11:04;97476.16;;;1.47;64.47
22580;BME280;11456;47.030;15.396;2023-03-18T01:13:30;97466.53;;;1.58;63.56
22580;BME280;11456;47.030;15.396;2023-03-18T01:15:57;97477.72;;;1.49;64.21
22580;BME280;11456;47.030;15.396;2023-03-18T01:18:24;97478.84;;;1.59;63.77
22580;BME280;11456;47.030;15.396;2023-03-18T01:20:50;97471.59;;;1.61;63.86
22580;BME280;11456;47.030;15.396;2023-03-18T01:23:19;97471.19;;;1.68;63.30
22580;BME280;11456;47.030;15.396;2023-03-18T01:25:46;97467.19;;;1.75;63.50
22580;BME280;11456;47.030;15.396;2023-03-18T01:28:17;97465.56;;;1.59;63.82
22580;BME280;11456;47.030;15.396;2023-03-18T01:30:43;97478.97;;;1.44;64.26
22580;BME280;11456;47.030;15.396;2023-03-18T01:33:10;97472.28;;;1.38;64.38
22580;BME280;11456;47.030;15.396;2023-03-18T01:35:37;97469.13;;;1.19;64.87
22580;BME280;11456;47.030;15.396;2023-03-18T01:38:04;97476.13;;;1.20;65.73
22580;BME280;11456;47.030;15.396;2023-03-18T01:40:32;97464.75;;;1.18;65.44
22580;BME280;11456;47.030;15.396;2023-03-18T01:43:11;97465.81;;;1.42;64.76
22580;BME280;11456;47.030;15.396;2023-03-18T01:45:39;97467.63;;;1.15;65.35
22580;BME280;11456;47.030;15.396;2023-03-18T01:48:09;97474.56;;;1.30;65.53
22580;BME280;11456;47.030;15.396;2023-03-18T01:50:39;97474.47;;;0.91;66.43
22580;BME280;11456;47.030;15.396;2023-03-18T01:53:08;97462.91;;;1.06;66.28
22580;BME280;11456;47.030;15.396;2023-03-18T01:55:35;97472.19;;;1.13;65.99
22580;BME280;11456;47.030;15.396;2023-03-18T01:58:05;97477.19;;;1.17;65.88
22580;BME280;11456;47.030;15.396;2023-03-18T02:00:34;97472.34;;;1.10;65.96
22580;BME280;11456;47.030;15.396;2023-03-18T02:03:03;97469.75;;;1.23;65.72
22580;BME280;11456;47.030;15.396;2023-03-18T02:05:30;97471.31;;;1.12;65.88
22580;BME280;11456;47.030;15.396;2023-03-18T02:07:57;97468.41;;;1.03;66.45
22580;BME280;11456;47.030;15.396;2023-03-18T02:10:24;97477.50;;;0.99;66.47
22580;BME280;11456;47.030;15.396;2023-03-18T02:12:57;97478.75;;;0.93;66.77
22580;BME280;11456;47.030;15.396;2023-03-18T02:15:33;97480.38;;;0.82;66.80
22580;BME280;11456;47.030;15.396;2023-03-18T02:18:02;97478.84;;;0.92;66.80
22580;BME280;11456;47.030;15.396;2023-03-18T02:23:31;97477.91;;;0.93;66.48
22580;BME280;11456;47.030;15.396;2023-03-18T02:26:19;97472.34;;;1.10;65.33
22580;BME280;11456;47.030;15.396;2023-03-18T02:28:48;97485.09;;;0.91;66.27
22580;BME280;11456;47.030;15.396;2023-03-18T02:31:16;97486.63;;;0.95;66.28
22580;BME280;11456;47.030;15.396;2023-03-18T02:33:44;97480.13;;;1.13;65.64
22580;BME280;11456;47.030;15.396;2023-03-18T02:36:18;97481.47;;;1.06;65.09
22580;BME280;11456;47.030;15.396;2023-03-18T02:38:47;97492.16;;;1.04;64.96
22580;BME280;11456;47.030;15.396;2023-03-18T02:41:22;97476.56;;;0.86;66.23
22580;BME280;11456;47.030;15.396;2023-03-18T02:43:49;97472.13;;;0.86;66.75
22580;BME280;11456;47.030;15.396;2023-03-18T02:48:53;97477.31;;;1.02;66.43
22580;BME280;11456;47.030;15.396;2023-03-18T02:51:21;97479.25;;;0.71;66.54
22580;BME280;11456;47.030;15.396;2023-03-18T02:53:48;97473.16;;;0.84;66.44
22580;BME280;11456;47.030;15.396;2023-03-18T02:56:16;97477.56;;;0.70;67.41
22580;BME280;11456;47.030;15.396;2023-03-18T02:58:43;97469.41;;;0.59;67.96
22580;BME280;11456;47.030;15.396;2023-03-18T03:01:10;97472.06;;;0.73;67.41
22580;BME280;11456;47.030;15.396;2023-03-18T03:03:38;97481.53;;;0.63;68.12
22580;BME280;11456;47.030;15.396;2023-03-18T03:06:05;97475.09;;;0.82;67.28
22580;BME280;11456;47.030;15.396;2023-03-18T03:08:32;97474.22;;;0.81;67.03
22580;BME280;11456;47.030;15.396;2023-03-18T03:10:59;97475.25;;;0.78;66.63
22580;BME280;11456;47.030;15.396;2023-03-18T03:13:28;97481.34;;;0.66;67.16
22580;BME280;11456;47.030;15.396;2023-03-18T03:15:55;97478.50;;;0.55;67.94
22580;BME280;11456;47.030;15.396;2023-03-18T03:18:21;97480.22;;;0.56;67.57
22580;BME280;11456;47.030;15.396;2023-03-18T03:20:51;97488.16;;;0.42;68.21
22580;BME280;11456;47.030;15.396;2023-03-18T03:23:18;97481.16;;;0.41;68.23
22580;BME280;11456;47.030;15.396;2023-03-18T03:25:46;97486.28;;;0.44;68.07
22580;BME280;11456;47.030;15.396;2023-03-18T03:28:14;97485.13;;;0.48;68.28
22580;BME280;11456;47.030;15.396;2023-03-18T03:30:41;97483.88;;;0.39;68.33
22580;BME280;11456;47.030;15.396;2023-03-18T03:33:09;97487.94;;;0.45;68.54
22580;BME280;11456;47.030;15.396;2023-03-18T03:35:35;97500.25;;;0.46;68.69
22580;BME280;11456;47.030;15.396;2023-03-18T03:38:04;97496.66;;;0.47;68.49
22580;BME280;11456;47.030;15.396;2023-03-18T03:40:31;97504.41;;;0.64;67.87
22580;BME280;11456;47.030;15.396;2023-03-18T03:42:58;97499.50;;;0.58;67.69
22580;BME280;11456;47.030;15.396;2023-03-18T03:45:25;97506.03;;;0.53;67.66
22580;BME280;11456;47.030;15.396;2023-03-18T03:47:52;97501.78;;;0.50;67.35
22580;BME280;11456;47.030;15.396;2023-03-18T03:50:19;97500.63;;;0.40;68.39
22580;BME280;11456;47.030;15.396;2023-03-18T03:52:47;97505.53;;;0.18;69.26
22580;BME280;11456;47.030;15.396;2023-03-18T03:55:16;97512.91;;;0.27;69.61
22580;BME280;11456;47.030;15.396;2023-03-18T03:57:43;97510.56;;;0.36;68.73
22580;BME280;11456;47.030;15.396;2023-03-18T04:00:10;97502.72;;;0.35;69.08
22580;BME280;11456;47.030;15.396;2023-03-18T04:02:45;97498.16;;;0.23;69.21
22580;BME280;11456;47.030;15.396;2023-03-18T04:05:13;97505.53;;;0.18;68.94
22580;BME280;11456;47.030;15.396;2023-03-18T04:07:39;97504.03;;;0.28;68.86
22580;BME280;11456;47.030;15.396;2023-03-18T04:10:07;97505.56;;;0.46;68.24
22580;BME280;11456;47.030;15.396;2023-03-18T04:12:35;97510.38;;;0.39;68.34
22580;BME280;11456;47.030;15.396;2023-03-18T04:15:02;97508.75;;;0.23;68.89
22580;BME280;11456;47.030;15.396;2023-03-18T04:17:28;97505.91;;;0.12;69.36
22580;BME280;11456;47.030;15.396;2023-03-18T04:19:55;97516.19;;;0.02;69.83
22580;BME280;11456;47.030;15.396;2023-03-18T04:22:27;97509.50;;;0.11;69.55
22580;BME280;11456;47.030;15.396;2023-03-18T04:24:55;97506.41;;;0.18;69.52
22580;BME280;11456;47.030;15.396;2023-03-18T04:27:22;97505.28;;;0.36;68.56
22580;BME280;11456;47.030;15.396;2023-03-18T04:29:49;97508.94;;;0.20;68.81
22580;BME280;11456;47.030;15.396;2023-03-18T04:32:17;97508.38;;;0.29;68.99
22580;BME280;11456;47.030;15.396;2023-03-18T04:34:44;97515.84;;;0.22;68.77
22580;BME280;11456;47.030;15.396;2023-03-18T04:37:11;97515.09;;;0.20;68.98
22580;BME280;11456;47.030;15.396;2023-03-18T04:39:41;97513.59;;;0.30;68.37
22580;BME280;11456;47.030;15.396;2023-03-18T04:42:09;97512.56;;;0.47;68.23
22580;BME280;11456;47.030;15.396;2023-03-18T04:44:36;97513.34;;;0.49;68.20
22580;BME280;11456;47.030;15.396;2023-03-18T04:47:03;97505.38;;;0.35;68.27
22580;BME280;11456;47.030;15.396;2023-03-18T04:49:30;97513.63;;;0.00;68.97
22580;BME280;11456;47.030;15.396;2023-03-18T04:52:00;97511.75;;;0.03;69.37
22580;BME280;11456;47.030;15.396;2023-03-18T04:54:30;97514.00;;;-0.06;69.71
22580;BME280;11456;47.030;15.396;2023-03-18T04:57:00;97523.19;;;0.03;69.31
22580;BME280;11456;47.030;15.396;2023-03-18T04:59:30;97516.06;;;-0.11;69.60
22580;BME280;11456;47.030;15.396;2023-03-18T05:02:01;97518.13;;;-0.16;70.64
22580;BME280;11456;47.030;15.396;2023-03-18T05:04:28;97522.28;;;-0.12;70.47
22580;BME280;11456;47.030;15.396;2023-03-18T05:06:55;97528.84;;;-0.03;69.80
22580;BME280;11456;47.030;15.396;2023-03-18T05:09:28;97528.00;;;-0.04;70.25
22580;BME280;11456;47.030;15.396;2023-03-18T05:11:56;97522.91;;;-0.07;70.09
22580;BME280;11456;47.030;15.396;2023-03-18T05:14:29;97535.00;;;-0.03;69.84
22580;BME280;11456;47.030;15.396;2023-03-18T05:16:58;97540.25;;;-0.17;69.97
22580;BME280;11456;47.030;15.396;2023-03-18T05:19:26;97541.53;;;-0.24;70.56
22580;BME280;11456;47.030;15.396;2023-03-18T05:22:29;97538.16;;;-0.26;70.57
22580;BME280;11456;47.030;15.396;2023-03-18T05:25:05;97546.66;;;-0.21;70.95
22580;BME280;11456;47.030;15.396;2023-03-18T05:27:33;97537.19;;;0.05;70.45
22580;BME280;11456;47.030;15.396;2023-03-18T05:30:05;97549.50;;;0.06;70.22
22580;BME280;11456;47.030;15.396;2023-03-18T05:32:37;97551.00;;;0.10;69.53
22580;BME280;11456;47.030;15.396;2023-03-18T05:35:06;97549.88;;;0.00;70.10
22580;BME280;11456;47.030;15.396;2023-03-18T05:37:42;97544.38;;;0.03;70.35
22580;BME280;11456;47.030;15.396;2023-03-18T05:40:10;97552.94;;;0.22;70.24
22580;BME280;11456;47.030;15.396;2023-03-18T05:42:41;97548.44;;;0.53;69.26
22580;BME280;11456;47.030;15.396;2023-03-18T05:45:28;97555.88;;;1.17;68.79
22580;BME280;11456;47.030;15.396;2023-03-18T05:47:55;97551.72;;;1.27;66.33
22580;BME280;11456;47.030;15.396;2023-03-18T05:50:36;97549.31;;;0.82;67.83
22580;BME280;11456;47.030;15.396;2023-03-18T05:53:07;97558.38;;;0.77;69.29
22580;BME280;11456;47.030;15.396;2023-03-18T05:55:38;97548.28;;;0.70;69.61
22580;BME280;11456;47.030;15.396;2023-03-18T05:58:06;97553.00;;;0.93;69.54
22580;BME280;11456;47.030;15.396;2023-03-18T06:00:35;97556.97;;;1.41;68.67
22580;BME280;11456;47.030;15.396;2023-03-18T06:03:03;97553.44;;;1.82;67.16
22580;BME280;11456;47.030;15.396;2023-03-18T06:05:30;97549.16;;;2.06;66.59
22580;BME280;11456;47.030;15.396;2023-03-18T06:07:57;97548.59;;;2.66;65.71
22580;BME280;11456;47.030;15.396;2023-03-18T06:10:24;97550.47;;;3.02;64.70
22580;BME280;11456;47.030;15.396;2023-03-18T06:12:51;97546.25;;;2.99;64.06
22580;BME280;11456;47.030;15.396;2023-03-18T06:15:21;97557.16;;;3.33;63.88
22580;BME280;11456;47.030;15.396;2023-03-18T06:17:49;97555.13;;;3.60;62.06
22580;BME280;11456;47.030;15.396;2023-03-18T06:20:16;97561.16;;;3.98;61.25
22580;BME280;11456;47.030;15.396;2023-03-18T06:22:45;97556.63;;;4.12;61.19
22580;BME280;11456;47.030;15.396;2023-03-18T06:25:16;97566.53;;;4.33;59.51
22580;BME280;11456;47.030;15.396;2023-03-18T06:27:42;97559.91;;;4.50;58.94
22580;BME280;11456;47.030;15.396;2023-03-18T06:30:09;97564.47;;;4.48;58.48
22580;BME280;11456;47.030;15.396;2023-03-18T06:32:37;97569.47;;;4.18;58.10
22580;BME280;11456;47.030;15.396;2023-03-18T06:35:06;97572.47;;;4.37;57.83
22580;BME280;11456;47.030;15.396;2023-03-18T06:37:35;97576.69;;;4.74;57.59
22580;BME280;11456;47.030;15.396;2023-03-18T06:40:02;97579.16;;;5.33;55.86
22580;BME280;11456;47.030;15.396;2023-03-18T06:42:29;97583.53;;;5.34;55.72
22580;BME280;11456;47.030;15.396;2023-03-18T06:45:05;97578.59;;;6.06;53.53
22580;BME280;11456;47.030;15.396;2023-03-18T06:47:45;97586.41;;;6.82;52.13
22580;BME280;11456;47.030;15.396;2023-03-18T06:50:13;97581.69;;;6.75;52.01
22580;BME280;11456;47.030;15.396;2023-03-18T06:52:41;97586.06;;;7.48;50.38
22580;BME280;11456;47.030;15.396;2023-03-18T06:55:12;97594.91;;;7.79;49.13
22580;BME280;11456;47.030;15.396;2023-03-18T06:57:42;97582.56;;;8.26;47.53
22580;BME280;11456;47.030;15.396;2023-03-18T07:00:13;97589.09;;;8.52;46.67
22580;BME280;11456;47.030;15.396;2023-03-18T07:02:40;97592.19;;;7.39;49.26
22580;BME280;11456;47.030;15.396;2023-03-18T07:05:10;97590.69;;;7.95;47.68
22580;BME280;11456;47.030;15.396;2023-03-18T07:07:39;97596.53;;;8.20;48.62
22580;BME280;11456;47.030;15.396;2023-03-18T07:10:07;97598.59;;;8.56;46.70
22580;BME280;11456;47.030;15.396;2023-03-18T07:12:34;97595.59;;;8.40;46.36
22580;BME280;11456;47.030;15.396;2023-03-18T07:15:02;97595.84;;;8.18;47.09
22580;BME280;11456;47.030;15.396;2023-03-18T07:17:28;97595.88;;;8.95;43.47
22580;BME280;11456;47.030;15.396;2023-03-18T07:19:55;97596.53;;;9.16;42.64
22580;BME280;11456;47.030;15.396;2023-03-18T07:22:22;97595.88;;;8.85;43.25
22580;BME280;11456;47.030;15.396;2023-03-18T07:24:49;97601.13;;;9.80;42.12
22580;BME280;11456;47.030;15.396;2023-03-18T07:27:17;97599.19;;;9.25;41.96
22580;BME280;11456;47.030;15.396;2023-03-18T07:29:44;97597.22;;;9.28;41.74
22580;BME280;11456;47.030;15.396;2023-03-18T07:32:10;97596.84;;;10.14;40.20
22580;BME280;11456;47.030;15.396;2023-03-18T07:34:37;97606.16;;;9.18;41.16
22580;BME280;11456;47.030;15.396;2023-03-18T07:37:03;97613.25;;;9.56;41.60
22580;BME280;11456;47.030;15.396;2023-03-18T07:39:30;97616.06;;;9.64;40.77
22580;BME280;11456;47.030;15.396;2023-03-18T07:41:57;97611.97;;;9.14;42.16
22580;BME280;11456;47.030;15.396;2023-03-18T07:44:27;97616.31;;;9.71;40.93
22580;BME280;11456;47.030;15.396;2023-03-18T07:46:54;97621.16;;;10.50;39.31
22580;BME280;11456;47.030;15.396;2023-03-18T07:49:21;97614.16;;;10.74;38.54
22580;BME280;11456;47.030;15.396;2023-03-18T07:51:49;97617.97;;;11.33;38.40
22580;BME280;11456;47.030;15.396;2023-03-18T07:54:15;97617.97;;;11.59;36.29
22580;BME280;11456;47.030;15.396;2023-03-18T07:56:43;97617.22;;;12.00;37.55
22580;BME280;11456;47.030;15.396;2023-03-18T07:59:09;97617.88;;;11.43;37.13
22580;BME280;11456;47.030;15.396;2023-03-18T08:01:37;97619.72;;;11.68;36.40
22580;BME280;11456;47.030;15.396;2023-03-18T08:04:04;97619.84;;;11.58;35.14
22580;BME280;11456;47.030;15.396;2023-03-18T08:06:31;97616.41;;;11.74;36.10
22580;BME280;11456;47.030;15.396;2023-03-18T08:08:58;97625.94;;;10.56;37.64
22580;BME280;11456;47.030;15.396;2023-03-18T08:11:25;97634.69;;;10.93;37.03
22580;BME280;11456;47.030;15.396;2023-03-18T08:13:51;97633.69;;;10.94;36.43
22580;BME280;11456;47.030;15.396;2023-03-18T08:16:18;97626.38;;;11.04;36.40
22580;BME280;11456;47.030;15.396;2023-03-18T08:18:44;97630.00;;;10.05;38.25
22580;BME280;11456;47.030;15.396;2023-03-18T08:21:11;97629.72;;;11.50;36.88
22580;BME280;11456;47.030;15.396;2023-03-18T08:23:37;97630.88;;;11.73;34.27
22580;BME280;11456;47.030;15.396;2023-03-18T08:26:04;97632.44;;;11.50;34.77
22580;BME280;11456;47.030;15.396;2023-03-18T08:28:31;97629.97;;;11.82;33.85
22580;BME280;11456;47.030;15.396;2023-03-18T08:30:57;97632.81;;;11.81;34.55
22580;BME280;11456;47.030;15.396;2023-03-18T08:33:24;97628.38;;;12.56;33.72
22580;BME280;11456;47.030;15.396;2023-03-18T08:35:55;97623.22;;;13.11;32.39
22580;BME280;11456;47.030;15.396;2023-03-18T08:38:23;97631.69;;;13.16;31.58
22580;BME280;11456;47.030;15.396;2023-03-18T08:40:50;97633.00;;;12.79;34.89
22580;BME280;11456;47.030;15.396;2023-03-18T08:43:17;97625.00;;;12.62;33.39
22580;BME280;11456;47.030;15.396;2023-03-18T08:45:43;97631.69;;;13.16;32.79
22580;BME280;11456;47.030;15.396;2023-03-18T08:48:10;97625.38;;;12.17;33.67
22580;BME280;11456;47.030;15.396;2023-03-18T08:50:36;97631.59;;;11.75;35.42
22580;BME280;11456;47.030;15.396;2023-03-18T08:53:03;97635.34;;;11.56;34.53
22580;BME280;11456;47.030;15.396;2023-03-18T08:55:31;97630.16;;;11.63;34.99
22580;BME280;11456;47.030;15.396;2023-03-18T08:57:58;97629.38;;;11.96;35.72
22580;BME280;11456;47.030;15.396;2023-03-18T09:00:25;97631.03;;;11.97;34.68
22580;BME280;11456;47.030;15.396;2023-03-18T09:02:52;97631.81;;;12.16;35.66
22580;BME280;11456;47.030;15.396;2023-03-18T09:05:19;97629.56;;;12.61;34.45
22580;BME280;11456;47.030;15.396;2023-03-18T09:07:46;97619.88;;;12.34;34.56
22580;BME280;11456;47.030;15.396;2023-03-18T09:10:13;97627.09;;;12.26;34.43
22580;BME280;11456;47.030;15.396;2023-03-18T09:12:40;97623.06;;;12.30;34.59
22580;BME280;11456;47.030;15.396;2023-03-18T09:15:08;97619.81;;;13.09;35.22
22580;BME280;11456;47.030;15.396;2023-03-18T09:17:36;97617.28;;;14.11;33.31
22580;BME280;11456;47.030;15.396;2023-03-18T09:20:25;97611.66;;;13.74;32.25
22580;BME280;11456;47.030;15.396;2023-03-18T09:22:52;97613.63;;;13.96;34.85
22580;BME280;11456;47.030;15.396;2023-03-18T09:25:18;97617.34;;;12.33;34.85
22580;BME280;11456;47.030;15.396;2023-03-18T09:27:45;97620.38;;;14.00;32.33
22580;BME280;11456;47.030;15.396;2023-03-18T09:30:12;97613.88;;;14.56;31.14
22580;BME280;11456;47.030;15.396;2023-03-18T09:32:39;97619.09;;;13.80;33.73
22580;BME280;11456;47.030;15.396;2023-03-18T09:35:06;97615.94;;;13.52;33.73
22580;BME280;11456;47.030;15.396;2023-03-18T09:37:38;97607.50;;;14.49;31.53
22580;BME280;11456;47.030;15.396;2023-03-18T09:40:05;97599.72;;;14.07;31.24
22580;BME280;11456;47.030;15.396;2023-03-18T09:42:48;97601.41;;;14.08;32.02
22580;BME280;11456;47.030;15.396;2023-03-18T09:47:58;97614.53;;;13.80;32.33
22580;BME280;11456;47.030;15.396;2023-03-18T09:56:02;97602.31;;;14.31;32.02
22580;BME280;11456;47.030;15.396;2023-03-18T09:58:32;97607.31;;;13.40;32.95
22580;BME280;11456;47.030;15.396;2023-03-18T10:01:03;97606.47;;;14.11;32.34
22580;BME280;11456;47.030;15.396;2023-03-18T10:06:17;97611.75;;;14.43;30.97
22580;BME280;11456;47.030;15.396;2023-03-18T10:16:28;97612.28;;;14.93;32.45
22580;BME280;11456;47.030;15.396;2023-03-18T10:18:55;97616.94;;;15.44;30.23
22580;BME280;11456;47.030;15.396;2023-03-18T10:26:41;97611.34;;;15.08;30.26
22580;BME280;11456;47.030;15.396;2023-03-18T10:34:22;97610.22;;;15.17;29.75
22580;BME280;11456;47.030;15.396;2023-03-18T10:37:02;97613.63;;;14.97;29.27
22580;BME280;11456;47.030;15.396;2023-03-18T10:39:30;97607.03;;;15.74;29.49
22580;BME280;11456;47.030;15.396;2023-03-18T10:41:59;97603.84;;;15.85;28.36
22580;BME280;11456;47.030;15.396;2023-03-18T10:44:28;97604.78;;;16.72;27.94
22580;BME280;11456;47.030;15.396;2023-03-18T10:46:57;97606.09;;;15.67;28.84
22580;BME280;11456;47.030;15.396;2023-03-18T10:49:26;97606.22;;;17.53;27.83
22580;BME280;11456;47.030;15.396;2023-03-18T10:51:56;97608.56;;;17.35;27.00
22580;BME280;11456;47.030;15.396;2023-03-18T10:56:52;97599.44;;;16.64;27.76
22580;BME280;11456;47.030;15.396;2023-03-18T10:59:20;97594.06;;;17.07;26.68
22580;BME280;11456;47.030;15.396;2023-03-18T11:01:50;97603.59;;;16.45;27.84
22580;BME280;11456;47.030;15.396;2023-03-18T11:04:18;97598.13;;;15.43;31.80
22580;BME280;11456;47.030;15.396;2023-03-18T11:09:17;97596.13;;;16.83;26.32
22580;BME280;11456;47.030;15.396;2023-03-18T11:11:49;97597.31;;;16.96;28.44
22580;BME280;11456;47.030;15.396;2023-03-18T11:14:19;97588.03;;;16.90;27.51
22580;BME280;11456;47.030;15.396;2023-03-18T11:22:25;97580.75;;;16.40;27.41
22580;BME280;11456;47.030;15.396;2023-03-18T11:27:38;97580.00;;;17.24;27.29
22580;BME280;11456;47.030;15.396;2023-03-18T11:30:10;97568.28;;;17.80;25.52
22580;BME280;11456;47.030;15.396;2023-03-18T11:32:50;97564.91;;;17.01;27.32
22580;BME280;11456;47.030;15.396;2023-03-18T11:35:19;97560.03;;;18.01;26.27
22580;BME280;11456;47.030;15.396;2023-03-18T11:37:46;97555.44;;;19.56;24.48
22580;BME280;11456;47.030;15.396;2023-03-18T11:42:41;97560.28;;;18.54;25.13
22580;BME280;11456;47.030;15.396;2023-03-18T11:47:54;97550.56;;;19.32;24.40
22580;BME280;11456;47.030;15.396;2023-03-18T11:50:24;97545.53;;;19.42;24.39
22580;BME280;11456;47.030;15.396;2023-03-18T11:55:54;97538.16;;;18.96;24.93
22580;BME280;11456;47.030;15.396;2023-03-18T12:00:56;97534.38;;;19.10;25.37
22580;BME280;11456;47.030;15.396;2023-03-18T12:11:42;97522.78;;;19.87;23.09
22580;BME280;11456;47.030;15.396;2023-03-18T12:19:41;97531.63;;;18.84;24.45
22580;BME280;11456;47.030;15.396;2023-03-18T12:22:16;97525.97;;;18.92;24.63
22580;BME280;11456;47.030;15.396;2023-03-18T12:27:16;97521.72;;;18.70;24.42
22580;BME280;11456;47.030;15.396;2023-03-18T12:35:06;97520.25;;;18.13;24.94
22580;BME280;11456;47.030;15.396;2023-03-18T12:45:21;97522.78;;;18.82;25.22
22580;BME280;11456;47.030;15.396;2023-03-18T12:47:58;97520.94;;;19.68;23.96
22580;BME280;11456;47.030;15.396;2023-03-18T12:50:26;97524.25;;;18.65;24.43
22580;BME280;11456;47.030;15.396;2023-03-18T12:52:59;97525.31;;;18.77;25.58
22580;BME280;11456;47.030;15.396;2023-03-18T12:55:30;97518.72;;;18.52;24.80
22580;BME280;11456;47.030;15.396;2023-03-18T12:58:02;97523.19;;;17.43;26.33
22580;BME280;11456;47.030;15.396;2023-03-18T13:00:33;97525.91;;;17.71;25.88
22580;BME280;11456;47.030;15.396;2023-03-18T13:03:02;97525.09;;;18.11;27.56
22580;BME280;11456;47.030;15.396;2023-03-18T13:05:56;97523.28;;;18.38;28.03
22580;BME280;11456;47.030;15.396;2023-03-18T13:08:44;97520.34;;;18.39;26.62
22580;BME280;11456;47.030;15.396;2023-03-18T13:13:41;97520.97;;;18.28;25.31
22580;BME280;11456;47.030;15.396;2023-03-18T13:16:09;97533.50;;;18.77;25.09
22580;BME280;11456;47.030;15.396;2023-03-18T13:18:40;97525.47;;;18.08;25.52
22580;BME280;11456;47.030;15.396;2023-03-18T13:21:12;97520.13;;;18.34;26.40
22580;BME280;11456;47.030;15.396;2023-03-18T13:26:15;97521.13;;;19.40;24.69
22580;BME280;11456;47.030;15.396;2023-03-18T13:29:01;97510.00;;;19.02;25.20
22580;BME280;11456;47.030;15.396;2023-03-18T13:36:39;97512.50;;;18.64;25.40
22580;BME280;11456;47.030;15.396;2023-03-18T13:39:26;97508.78;;;19.51;24.78
22580;BME280;11456;47.030;15.396;2023-03-18T13:42:13;97503.84;;;18.00;26.49
22580;BME280;11456;47.030;15.396;2023-03-18T13:44:44;97497.34;;;18.01;26.71
22580;BME280;11456;47.030;15.396;2023-03-18T13:47:15;97500.66;;;18.51;25.69
22580;BME280;11456;47.030;15.396;2023-03-18T13:49:42;97511.03;;;18.14;26.05
22580;BME280;11456;47.030;15.396;2023-03-18T13:52:20;97496.22;;;17.82;26.46
22580;BME280;11456;47.030;15.396;2023-03-18T13:54:48;97493.47;;;17.76;26.75
22580;BME280;11456;47.030;15.396;2023-03-18T14:00:11;97490.44;;;16.80;27.59
22580;BME280;11456;47.030;15.396;2023-03-18T14:07:54;97491.66;;;17.27;27.36
22580;BME280;11456;47.030;15.396;2023-03-18T14:10:21;97485.25;;;16.64;28.50
22580;BME280;11456;47.030;15.396;2023-03-18T14:12:48;97482.53;;;16.86;27.89
22580;BME280;11456;47.030;15.396;2023-03-18T14:17:54;97481.06;;;17.11;27.77
22580;BME280;11456;47.030;15.396;2023-03-18T14:22:50;97479.03;;;15.77;29.90
22580;BME280;11456;47.030;15.396;2023-03-18T14:25:21;97471.78;;;16.56;28.52
22580;BME280;11456;47.030;15.396;2023-03-18T14:38:21;97478.94;;;15.56;30.07
22580;BME280;11456;47.030;15.396;2023-03-18T14:40:48;97469.19;;;15.76;29.83
22580;BME280;11456;47.030;15.396;2023-03-18T14:43:27;97471.34;;;16.17;29.39
22580;BME280;11456;47.030;15.396;2023-03-18T14:45:56;97478.34;;;15.46;30.45
22580;BME280;11456;47.030;15.396;2023-03-18T14:48:33;97466.63;;;15.01;31.27
22580;BME280;11456;47.030;15.396;2023-03-18T14:51:10;97460.41;;;15.74;29.55
22580;BME280;11456;47.030;15.396;2023-03-18T14:53:46;97461.00;;;15.55;30.00
22580;BME280;11456;47.030;15.396;2023-03-18T14:56:21;97463.94;;;15.31;30.42
22580;BME280;11456;47.030;15.396;2023-03-18T14:58:51;97461.53;;;15.36;30.21
22580;BME280;11456;47.030;15.396;2023-03-18T15:01:22;97468.75;;;15.58;29.56
22580;BME280;11456;47.030;15.396;2023-03-18T15:03:50;97469.00;;;15.63;29.91
22580;BME280;11456;47.030;15.396;2023-03-18T15:06:19;97453.47;;;15.28;30.49
22580;BME280;11456;47.030;15.396;2023-03-18T15:08:48;97473.19;;;15.07;31.61